Aérodrome :
LOGIN :

S'inscrire | Disclaimer

   EN    FR    IT 

 










Légende :    VFR   VFR Marginal   IFR   IFR Intensif   IFR Très Intensif
Visi : 
Plafond : 
>= 8 km
>= 3000ft
5 à 8 km
1000 à 3000 ft
1500m à 5 km
500 à 1000 ft
800 à 1500m
200 à 500 ft
< 800m
< 200 ft
Symboles :   Orages  Brouillard  Fortes neiges  Fortes précipitations  Vent > 20 kt
SIGMETs :   Divers  Orages  Givrage  Turbulence  Onde Orograph.  Cendres Volcan.







- Altitude de l'aérodrome : 147 ft
- Code IATA : DUS


EDDL - Düsseldorf Int.

DERNIER METAR :
  • 011720Z 20009KT 9999 FEW022 BKN038 07/04 Q1001 NOSIG

METARs EXPIRÉS :
  • 011650Z 21013KT 9999 FEW020 SCT030 BKN038 08/04 Q1001 NOSIG
  • 011620Z 22014KT 9999 -SHRA FEW018 SCT026TCU BKN036 08/04 Q1001 NOSIG
  • 011550Z 20010KT 9999 FEW018 SCT030 BKN050 08/04 Q1001 NOSIG
  • 011520Z 21010KT 9999 FEW018 SCT036 BKN150 08/04 Q1002 NOSIG
  • 011450Z 23008KT 9999 FEW018 SCT060 BKN180 08/04 Q1002 NOSIG

TAF TAF EDDL
Valide du 01 à 18h jusqu'au 03 à 00h UTC


011700Z 0118/0224 19010KT 9999 BKN030
BECMG 0200/0203 24015KT
BECMG 0203/0206 25015G30KT
TEMPO 0207/0214 25020G35KT
PROB40
TEMPO 0209/0212 25025G40KT
BECMG 0215/0218 25010KT
Pas de NOTAMs connus pour ce terrain.



MET'MAP, la Météo Aéronautique d'un coup d'oeil ! - Copyright ORBIFLY Décembre 2007 - Disclaimer

ORBIFLY MET'MAP TEAM :

Programmation & Développement : Alexandra Zaïnal
Conception & Développement : Baudouin d'Aumeries
Co-Programmation & Développement : Marc-Olivier Méhu
Soutien technique & logistique : Manuel Goepfert

Contact : metmap@orbifly.com




SOURCES & CREDITS :

   NOAA